sensor_id;sensor_type;location;lat;lon;timestamp;pressure;altitude;pressure_sealevel;temperature;humidity
65151;BME280;51918;51.856;0.150;2022-07-23T00:00:47;101016.94;;;16.12;57.90
65151;BME280;51918;51.856;0.150;2022-07-23T00:05:47;101014.06;;;16.07;57.82
65151;BME280;51918;51.856;0.150;2022-07-23T00:10:48;101008.47;;;16.03;57.96
65151;BME280;51918;51.856;0.150;2022-07-23T00:15:50;101013.84;;;16.01;57.68
65151;BME280;51918;51.856;0.150;2022-07-23T00:20:50;101018.41;;;15.99;57.95
65151;BME280;51918;51.856;0.150;2022-07-23T00:25:51;101021.56;;;15.95;58.04
65151;BME280;51918;51.856;0.150;2022-07-23T00:30:53;101018.63;;;15.83;58.37
65151;BME280;51918;51.856;0.150;2022-07-23T00:35:53;101026.25;;;15.85;58.52
65151;BME280;51918;51.856;0.150;2022-07-23T00:40:54;101030.00;;;15.82;58.61
65151;BME280;51918;51.856;0.150;2022-07-23T00:45:56;101027.75;;;15.79;58.84
65151;BME280;51918;51.856;0.150;2022-07-23T00:50:57;101026.13;;;15.78;59.22
65151;BME280;51918;51.856;0.150;2022-07-23T00:55:58;101022.75;;;15.77;59.30
65151;BME280;51918;51.856;0.150;2022-07-23T01:01:00;101024.13;;;15.58;58.74
65151;BME280;51918;51.856;0.150;2022-07-23T01:06:00;101010.88;;;15.68;59.30
65151;BME280;51918;51.856;0.150;2022-07-23T01:11:01;101010.53;;;15.56;59.47
65151;BME280;51918;51.856;0.150;2022-07-23T01:16:04;101008.59;;;15.44;60.01
65151;BME280;51918;51.856;0.150;2022-07-23T01:21:05;101005.09;;;15.51;59.76
65151;BME280;51918;51.856;0.150;2022-07-23T01:26:07;101004.91;;;15.53;59.87
65151;BME280;51918;51.856;0.150;2022-07-23T01:31:08;101001.53;;;15.52;59.90
65151;BME280;51918;51.856;0.150;2022-07-23T01:36:09;101001.53;;;15.37;59.48
65151;BME280;51918;51.856;0.150;2022-07-23T01:41:11;100991.78;;;15.39;60.46
65151;BME280;51918;51.856;0.150;2022-07-23T01:46:12;100992.72;;;15.32;60.51
65151;BME280;51918;51.856;0.150;2022-07-23T01:51:12;100996.56;;;15.36;60.38
65151;BME280;51918;51.856;0.150;2022-07-23T01:56:14;100991.53;;;15.34;60.20
65151;BME280;51918;51.856;0.150;2022-07-23T02:01:15;100992.97;;;15.37;60.73
65151;BME280;51918;51.856;0.150;2022-07-23T02:06:15;100985.25;;;15.44;60.72
65151;BME280;51918;51.856;0.150;2022-07-23T02:11:17;100986.53;;;15.33;60.38
65151;BME280;51918;51.856;0.150;2022-07-23T02:16:18;100978.84;;;15.25;61.00
65151;BME280;51918;51.856;0.150;2022-07-23T02:21:18;100983.50;;;15.29;61.34
65151;BME280;51918;51.856;0.150;2022-07-23T02:26:20;100977.81;;;15.19;60.82
65151;BME280;51918;51.856;0.150;2022-07-23T02:31:21;100988.25;;;15.26;60.97
65151;BME280;51918;51.856;0.150;2022-07-23T02:36:22;100998.97;;;15.23;61.32
65151;BME280;51918;51.856;0.150;2022-07-23T02:41:24;100994.41;;;15.25;61.28
65151;BME280;51918;51.856;0.150;2022-07-23T02:46:24;100996.13;;;15.17;61.10
65151;BME280;51918;51.856;0.150;2022-07-23T02:51:25;101002.66;;;15.13;61.86
65151;BME280;51918;51.856;0.150;2022-07-23T02:56:27;100997.47;;;15.13;61.92
65151;BME280;51918;51.856;0.150;2022-07-23T03:01:27;101002.66;;;15.13;61.93
65151;BME280;51918;51.856;0.150;2022-07-23T03:06:28;101002.38;;;15.23;62.14
65151;BME280;51918;51.856;0.150;2022-07-23T03:11:30;101003.72;;;15.34;61.59
65151;BME280;51918;51.856;0.150;2022-07-23T03:16:30;100993.06;;;15.29;61.32
65151;BME280;51918;51.856;0.150;2022-07-23T03:21:31;100997.53;;;15.35;61.47
65151;BME280;51918;51.856;0.150;2022-07-23T03:26:33;100996.28;;;15.31;60.93
65151;BME280;51918;51.856;0.150;2022-07-23T03:31:33;101003.34;;;15.37;61.82
65151;BME280;51918;51.856;0.150;2022-07-23T03:36:34;101005.13;;;15.36;61.87
65151;BME280;51918;51.856;0.150;2022-07-23T03:41:36;100994.66;;;15.45;62.28
65151;BME280;51918;51.856;0.150;2022-07-23T03:46:36;100990.09;;;15.47;61.71
65151;BME280;51918;51.856;0.150;2022-07-23T03:51:37;100993.38;;;15.55;61.89
65151;BME280;51918;51.856;0.150;2022-07-23T03:56:39;100993.13;;;15.50;61.59
65151;BME280;51918;51.856;0.150;2022-07-23T04:01:39;100991.94;;;15.53;62.05
65151;BME280;51918;51.856;0.150;2022-07-23T04:06:40;100990.88;;;15.62;61.67
65151;BME280;51918;51.856;0.150;2022-07-23T04:11:42;100984.75;;;15.70;62.32
65151;BME280;51918;51.856;0.150;2022-07-23T04:16:42;100979.94;;;15.67;62.08
65151;BME280;51918;51.856;0.150;2022-07-23T04:21:43;100981.28;;;15.63;62.13
65151;BME280;51918;51.856;0.150;2022-07-23T04:26:45;100998.97;;;15.74;62.51
65151;BME280;51918;51.856;0.150;2022-07-23T04:31:45;100993.84;;;15.80;62.48
65151;BME280;51918;51.856;0.150;2022-07-23T04:36:46;100990.72;;;15.85;62.82
65151;BME280;51918;51.856;0.150;2022-07-23T04:41:48;100985.91;;;15.82;62.79
65151;BME280;51918;51.856;0.150;2022-07-23T04:46:48;100981.34;;;15.84;62.40
65151;BME280;51918;51.856;0.150;2022-07-23T04:51:49;100974.88;;;15.80;62.76
65151;BME280;51918;51.856;0.150;2022-07-23T04:56:51;100980.19;;;15.72;63.10
65151;BME280;51918;51.856;0.150;2022-07-23T05:01:52;100975.88;;;15.79;63.15
65151;BME280;51918;51.856;0.150;2022-07-23T05:06:52;100973.06;;;15.95;63.32
65151;BME280;51918;51.856;0.150;2022-07-23T05:11:54;100974.72;;;16.03;63.42
65151;BME280;51918;51.856;0.150;2022-07-23T05:16:55;100983.69;;;16.22;63.30
65151;BME280;51918;51.856;0.150;2022-07-23T05:21:55;100983.53;;;16.30;63.05
65151;BME280;51918;51.856;0.150;2022-07-23T05:26:57;100992.84;;;16.46;63.13
65151;BME280;51918;51.856;0.150;2022-07-23T05:31:58;100997.34;;;16.59;62.95
65151;BME280;51918;51.856;0.150;2022-07-23T05:36:58;100998.41;;;16.71;62.90
65151;BME280;51918;51.856;0.150;2022-07-23T05:42:00;101000.38;;;16.91;62.53
65151;BME280;51918;51.856;0.150;2022-07-23T05:47:01;100998.69;;;17.18;62.17
65151;BME280;51918;51.856;0.150;2022-07-23T05:52:04;101004.56;;;17.40;61.67
65151;BME280;51918;51.856;0.150;2022-07-23T05:57:06;100989.25;;;17.65;61.04
65151;BME280;51918;51.856;0.150;2022-07-23T06:02:07;100998.72;;;17.73;60.72
65151;BME280;51918;51.856;0.150;2022-07-23T06:07:07;100998.50;;;17.81;60.76
65151;BME280;51918;51.856;0.150;2022-07-23T06:12:09;100981.72;;;17.83;60.36
65151;BME280;51918;51.856;0.150;2022-07-23T06:17:10;100985.13;;;18.04;60.13
65151;BME280;51918;51.856;0.150;2022-07-23T06:22:11;100979.53;;;18.14;60.05
65151;BME280;51918;51.856;0.150;2022-07-23T06:27:13;100986.72;;;18.32;60.16
65151;BME280;51918;51.856;0.150;2022-07-23T06:32:13;100982.31;;;18.72;59.13
65151;BME280;51918;51.856;0.150;2022-07-23T06:37:14;100980.31;;;19.26;58.06
65151;BME280;51918;51.856;0.150;2022-07-23T06:42:16;100982.16;;;19.89;58.12
65151;BME280;51918;51.856;0.150;2022-07-23T06:47:16;100972.19;;;20.73;54.41
65151;BME280;51918;51.856;0.150;2022-07-23T06:52:16;100975.00;;;21.27;53.80
65151;BME280;51918;51.856;0.150;2022-07-23T06:57:18;100979.91;;;22.07;51.88
65151;BME280;51918;51.856;0.150;2022-07-23T07:02:19;100985.59;;;22.28;50.80
65151;BME280;51918;51.856;0.150;2022-07-23T07:07:20;100981.81;;;22.71;50.03
65151;BME280;51918;51.856;0.150;2022-07-23T07:12:22;100986.59;;;23.26;48.17
65151;BME280;51918;51.856;0.150;2022-07-23T07:17:22;100994.03;;;23.92;47.49
65151;BME280;51918;51.856;0.150;2022-07-23T07:22:23;100999.00;;;24.61;46.37
65151;BME280;51918;51.856;0.150;2022-07-23T07:27:25;100991.69;;;25.34;44.25
65151;BME280;51918;51.856;0.150;2022-07-23T07:32:26;100999.41;;;25.73;42.42
65151;BME280;51918;51.856;0.150;2022-07-23T07:37:26;101002.97;;;26.27;42.46
65151;BME280;51918;51.856;0.150;2022-07-23T07:42:28;100987.75;;;27.12;40.46
65151;BME280;51918;51.856;0.150;2022-07-23T07:47:29;100984.88;;;27.29;38.91
65151;BME280;51918;51.856;0.150;2022-07-23T07:52:29;100988.63;;;27.85;37.18
65151;BME280;51918;51.856;0.150;2022-07-23T07:57:31;100994.31;;;28.53;37.60
65151;BME280;51918;51.856;0.150;2022-07-23T08:02:40;100980.28;;;29.08;37.01
65151;BME280;51918;51.856;0.150;2022-07-23T08:07:40;100976.66;;;30.01;34.80
65151;BME280;51918;51.856;0.150;2022-07-23T08:12:44;100977.81;;;30.81;33.79
65151;BME280;51918;51.856;0.150;2022-07-23T08:17:46;100988.34;;;31.62;32.05
65151;BME280;51918;51.856;0.150;2022-07-23T08:22:49;100979.84;;;32.21;30.97
65151;BME280;51918;51.856;0.150;2022-07-23T08:27:51;100983.59;;;32.84;31.08
65151;BME280;51918;51.856;0.150;2022-07-23T08:32:54;100969.38;;;33.34;28.99
65151;BME280;51918;51.856;0.150;2022-07-23T08:37:57;100975.03;;;33.86;28.04
65151;BME280;51918;51.856;0.150;2022-07-23T08:43:03;100978.91;;;34.20;27.14
65151;BME280;51918;51.856;0.150;2022-07-23T08:48:07;100967.47;;;33.88;26.15
65151;BME280;51918;51.856;0.150;2022-07-23T08:53:08;100964.63;;;33.84;26.88
65151;BME280;51918;51.856;0.150;2022-07-23T08:58:11;100956.88;;;33.65;28.92
65151;BME280;51918;51.856;0.150;2022-07-23T09:03:15;100966.56;;;33.30;28.07
65151;BME280;51918;51.856;0.150;2022-07-23T09:08:18;100948.66;;;33.31;27.00
65151;BME280;51918;51.856;0.150;2022-07-23T09:13:32;100948.13;;;34.31;26.31
65151;BME280;51918;51.856;0.150;2022-07-23T09:18:38;100958.06;;;35.18;26.95
65151;BME280;51918;51.856;0.150;2022-07-23T09:23:41;100959.97;;;35.64;22.35
65151;BME280;51918;51.856;0.150;2022-07-23T09:28:51;100968.81;;;35.65;23.42
65151;BME280;51918;51.856;0.150;2022-07-23T09:34:06;100959.69;;;35.96;23.42
65151;BME280;51918;51.856;0.150;2022-07-23T09:39:08;100952.31;;;35.93;22.29
65151;BME280;51918;51.856;0.150;2022-07-23T09:44:13;100969.03;;;36.40;24.50
65151;BME280;51918;51.856;0.150;2022-07-23T09:49:16;100971.78;;;36.74;22.39
65151;BME280;51918;51.856;0.150;2022-07-23T09:54:26;100973.19;;;37.13;22.03
65151;BME280;51918;51.856;0.150;2022-07-23T09:59:30;100965.13;;;37.46;21.78
65151;BME280;51918;51.856;0.150;2022-07-23T10:04:31;100966.00;;;37.50;20.27
65151;BME280;51918;51.856;0.150;2022-07-23T10:09:34;100972.75;;;37.57;20.57
65151;BME280;51918;51.856;0.150;2022-07-23T10:14:36;100960.00;;;37.90;19.39
65151;BME280;51918;51.856;0.150;2022-07-23T10:19:38;100962.41;;;38.32;20.20
65151;BME280;51918;51.856;0.150;2022-07-23T10:24:55;100954.47;;;39.08;19.66
65151;BME280;51918;51.856;0.150;2022-07-23T10:30:02;100961.94;;;38.99;18.99
65151;BME280;51918;51.856;0.150;2022-07-23T10:35:11;100967.94;;;39.56;17.88
65151;BME280;51918;51.856;0.150;2022-07-23T10:40:14;100962.09;;;39.06;17.43
65151;BME280;51918;51.856;0.150;2022-07-23T10:45:29;100959.53;;;39.26;18.85
65151;BME280;51918;51.856;0.150;2022-07-23T10:50:30;100946.16;;;39.13;17.70
65151;BME280;51918;51.856;0.150;2022-07-23T10:55:44;100937.69;;;39.43;16.87
65151;BME280;51918;51.856;0.150;2022-07-23T11:00:47;100938.44;;;39.76;16.57
65151;BME280;51918;51.856;0.150;2022-07-23T11:05:47;100928.94;;;39.02;17.15
65151;BME280;51918;51.856;0.150;2022-07-23T11:10:51;100929.97;;;38.53;17.62
65151;BME280;51918;51.856;0.150;2022-07-23T11:16:06;100932.06;;;38.88;16.26
65151;BME280;51918;51.856;0.150;2022-07-23T11:26:45;100929.28;;;39.80;16.05
65151;BME280;51918;51.856;0.150;2022-07-23T11:31:53;100923.41;;;40.29;15.18
65151;BME280;51918;51.856;0.150;2022-07-23T11:36:54;100921.84;;;40.09;14.53
65151;BME280;51918;51.856;0.150;2022-07-23T11:41:55;100918.03;;;39.94;14.98
65151;BME280;51918;51.856;0.150;2022-07-23T11:46:58;100912.81;;;40.01;14.61
65151;BME280;51918;51.856;0.150;2022-07-23T11:52:03;100919.66;;;39.99;14.98
65151;BME280;51918;51.856;0.150;2022-07-23T11:57:04;100892.47;;;40.04;14.60
65151;BME280;51918;51.856;0.150;2022-07-23T12:02:07;100900.34;;;39.77;15.50
65151;BME280;51918;51.856;0.150;2022-07-23T12:07:29;100905.06;;;38.85;15.90
65151;BME280;51918;51.856;0.150;2022-07-23T12:12:35;100903.06;;;38.53;16.42
65151;BME280;51918;51.856;0.150;2022-07-23T12:17:39;100898.28;;;38.47;14.80
65151;BME280;51918;51.856;0.150;2022-07-23T12:22:41;100892.97;;;38.22;15.10
65151;BME280;51918;51.856;0.150;2022-07-23T12:27:43;100889.53;;;38.50;15.29
65151;BME280;51918;51.856;0.150;2022-07-23T12:32:48;100887.03;;;38.57;15.64
65151;BME280;51918;51.856;0.150;2022-07-23T12:37:50;100884.06;;;39.54;16.28
65151;BME280;51918;51.856;0.150;2022-07-23T12:42:52;100880.84;;;40.00;14.32
65151;BME280;51918;51.856;0.150;2022-07-23T12:47:57;100881.97;;;39.47;14.69
65151;BME280;51918;51.856;0.150;2022-07-23T12:53:03;100875.97;;;39.89;15.97
65151;BME280;51918;51.856;0.150;2022-07-23T12:58:09;100864.72;;;40.03;13.66
65151;BME280;51918;51.856;0.150;2022-07-23T13:03:22;100864.00;;;40.88;13.68
65151;BME280;51918;51.856;0.150;2022-07-23T13:08:24;100858.34;;;41.76;13.54
65151;BME280;51918;51.856;0.150;2022-07-23T13:13:28;100853.91;;;42.25;12.33
65151;BME280;51918;51.856;0.150;2022-07-23T13:18:31;100845.91;;;42.02;12.58
65151;BME280;51918;51.856;0.150;2022-07-23T13:23:31;100840.91;;;42.38;12.60
65151;BME280;51918;51.856;0.150;2022-07-23T13:28:32;100832.25;;;42.63;12.46
65151;BME280;51918;51.856;0.150;2022-07-23T13:33:34;100831.94;;;41.96;12.18
65151;BME280;51918;51.856;0.150;2022-07-23T13:38:35;100819.75;;;42.10;12.53
65151;BME280;51918;51.856;0.150;2022-07-23T13:43:35;100829.00;;;42.46;12.33
65151;BME280;51918;51.856;0.150;2022-07-23T13:48:37;100824.34;;;41.45;12.58
65151;BME280;51918;51.856;0.150;2022-07-23T13:53:38;100820.81;;;40.88;13.08
65151;BME280;51918;51.856;0.150;2022-07-23T13:58:38;100829.44;;;40.97;13.46
65151;BME280;51918;51.856;0.150;2022-07-23T14:03:40;100818.38;;;41.06;13.69
65151;BME280;51918;51.856;0.150;2022-07-23T14:08:41;100828.13;;;40.87;13.49
65151;BME280;51918;51.856;0.150;2022-07-23T14:13:42;100814.88;;;40.13;13.79
65151;BME280;51918;51.856;0.150;2022-07-23T14:18:44;100812.78;;;39.32;14.25
65151;BME280;51918;51.856;0.150;2022-07-23T14:23:44;100812.41;;;38.38;14.64
65151;BME280;51918;51.856;0.150;2022-07-23T14:28:45;100813.41;;;37.65;15.74
65151;BME280;51918;51.856;0.150;2022-07-23T14:33:47;100814.19;;;37.78;15.85
65151;BME280;51918;51.856;0.150;2022-07-23T14:38:48;100817.16;;;37.48;16.43
65151;BME280;51918;51.856;0.150;2022-07-23T14:43:49;100812.19;;;37.25;16.31
65151;BME280;51918;51.856;0.150;2022-07-23T14:48:51;100802.34;;;36.92;16.83
65151;BME280;51918;51.856;0.150;2022-07-23T14:53:51;100807.06;;;36.29;17.52
65151;BME280;51918;51.856;0.150;2022-07-23T14:58:52;100804.09;;;35.88;18.47
65151;BME280;51918;51.856;0.150;2022-07-23T15:03:54;100815.56;;;35.68;18.77
65151;BME280;51918;51.856;0.150;2022-07-23T15:08:55;100805.88;;;35.25;19.22
65151;BME280;51918;51.856;0.150;2022-07-23T15:13:55;100814.50;;;34.83;19.75
65151;BME280;51918;51.856;0.150;2022-07-23T15:18:58;100805.44;;;34.41;20.50
65151;BME280;51918;51.856;0.150;2022-07-23T15:23:59;100810.00;;;33.97;20.97
65151;BME280;51918;51.856;0.150;2022-07-23T15:28:59;100797.13;;;33.33;21.80
65151;BME280;51918;51.856;0.150;2022-07-23T15:34:02;100783.75;;;33.24;22.22
65151;BME280;51918;51.856;0.150;2022-07-23T15:39:03;100799.66;;;33.06;22.47
65151;BME280;51918;51.856;0.150;2022-07-23T15:44:04;100792.66;;;32.88;22.62
65151;BME280;51918;51.856;0.150;2022-07-23T15:49:06;100777.88;;;32.51;23.24
65151;BME280;51918;51.856;0.150;2022-07-23T15:54:07;100775.53;;;32.35;23.64
65151;BME280;51918;51.856;0.150;2022-07-23T15:59:08;100772.81;;;32.26;23.97
65151;BME280;51918;51.856;0.150;2022-07-23T16:04:10;100770.28;;;32.21;24.08
65151;BME280;51918;51.856;0.150;2022-07-23T16:09:10;100774.91;;;32.30;23.98
65151;BME280;51918;51.856;0.150;2022-07-23T16:14:11;100773.56;;;32.18;24.38
65151;BME280;51918;51.856;0.150;2022-07-23T16:19:13;100779.00;;;32.13;24.29
65151;BME280;51918;51.856;0.150;2022-07-23T16:24:14;100785.72;;;31.97;24.74
65151;BME280;51918;51.856;0.150;2022-07-23T16:29:14;100776.28;;;31.91;24.82
65151;BME280;51918;51.856;0.150;2022-07-23T16:34:16;100784.34;;;31.58;25.15
65151;BME280;51918;51.856;0.150;2022-07-23T16:39:17;100775.50;;;31.21;25.57
65151;BME280;51918;51.856;0.150;2022-07-23T16:44:17;100790.00;;;30.82;26.03
65151;BME280;51918;51.856;0.150;2022-07-23T16:49:19;100781.56;;;30.61;26.42
65151;BME280;51918;51.856;0.150;2022-07-23T16:54:20;100781.09;;;30.40;26.97
65151;BME280;51918;51.856;0.150;2022-07-23T16:59:20;100781.75;;;30.32;27.33
65151;BME280;51918;51.856;0.150;2022-07-23T17:04:22;100776.06;;;30.19;27.58
65151;BME280;51918;51.856;0.150;2022-07-23T17:09:23;100774.88;;;29.88;28.33
65151;BME280;51918;51.856;0.150;2022-07-23T17:14:23;100779.16;;;29.65;28.73
65151;BME280;51918;51.856;0.150;2022-07-23T17:19:26;100784.44;;;29.40;28.87
65151;BME280;51918;51.856;0.150;2022-07-23T17:24:26;100783.34;;;29.17;29.77
65151;BME280;51918;51.856;0.150;2022-07-23T17:29:27;100780.03;;;29.07;29.67
65151;BME280;51918;51.856;0.150;2022-07-23T17:34:29;100791.81;;;28.90;30.42
65151;BME280;51918;51.856;0.150;2022-07-23T17:39:29;100781.56;;;28.78;30.50
65151;BME280;51918;51.856;0.150;2022-07-23T17:44:30;100787.84;;;28.53;30.79
65151;BME280;51918;51.856;0.150;2022-07-23T17:49:32;100781.78;;;27.98;31.68
65151;BME280;51918;51.856;0.150;2022-07-23T17:54:33;100785.84;;;27.80;32.09
65151;BME280;51918;51.856;0.150;2022-07-23T17:59:34;100784.28;;;27.64;32.05
65151;BME280;51918;51.856;0.150;2022-07-23T18:04:36;100771.38;;;27.52;32.48
65151;BME280;51918;51.856;0.150;2022-07-23T18:09:37;100771.41;;;27.31;32.85
65151;BME280;51918;51.856;0.150;2022-07-23T18:14:37;100786.25;;;27.12;33.19
65151;BME280;51918;51.856;0.150;2022-07-23T18:19:39;100780.16;;;26.70;33.51
65151;BME280;51918;51.856;0.150;2022-07-23T18:24:40;100770.13;;;26.57;34.07
65151;BME280;51918;51.856;0.150;2022-07-23T18:29:40;100768.50;;;26.46;34.53
65151;BME280;51918;51.856;0.150;2022-07-23T18:34:42;100768.75;;;26.29;34.70
65151;BME280;51918;51.856;0.150;2022-07-23T18:39:43;100779.22;;;26.08;35.03
65151;BME280;51918;51.856;0.150;2022-07-23T18:44:44;100767.31;;;25.95;35.64
65151;BME280;51918;51.856;0.150;2022-07-23T18:49:46;100779.63;;;25.80;35.65
65151;BME280;51918;51.856;0.150;2022-07-23T18:54:46;100791.63;;;25.55;36.68
65151;BME280;51918;51.856;0.150;2022-07-23T18:59:47;100785.19;;;25.35;37.09
65151;BME280;51918;51.856;0.150;2022-07-23T19:04:49;100792.63;;;25.11;37.33
65151;BME280;51918;51.856;0.150;2022-07-23T19:09:50;100789.91;;;25.01;38.06
65151;BME280;51918;51.856;0.150;2022-07-23T19:14:51;100791.69;;;24.90;37.88
65151;BME280;51918;51.856;0.150;2022-07-23T19:19:53;100804.72;;;24.75;38.20
65151;BME280;51918;51.856;0.150;2022-07-23T19:24:54;100790.63;;;24.59;38.06
65151;BME280;51918;51.856;0.150;2022-07-23T19:29:55;100773.84;;;24.43;38.13
65151;BME280;51918;51.856;0.150;2022-07-23T19:34:57;100789.47;;;24.28;39.40
65151;BME280;51918;51.856;0.150;2022-07-23T19:39:57;100790.88;;;24.13;39.37
65151;BME280;51918;51.856;0.150;2022-07-23T19:44:58;100784.34;;;23.94;39.59
65151;BME280;51918;51.856;0.150;2022-07-23T19:50:00;100787.88;;;23.83;40.03
65151;BME280;51918;51.856;0.150;2022-07-23T19:55:01;100796.28;;;23.63;40.91
65151;BME280;51918;51.856;0.150;2022-07-23T20:00:02;100785.88;;;23.51;40.71
65151;BME280;51918;51.856;0.150;2022-07-23T20:05:06;100794.63;;;23.40;41.27
65151;BME280;51918;51.856;0.150;2022-07-23T20:10:10;100795.47;;;23.23;41.90
65151;BME280;51918;51.856;0.150;2022-07-23T20:15:11;100811.25;;;23.11;41.80
65151;BME280;51918;51.856;0.150;2022-07-23T20:20:13;100827.38;;;23.03;42.19
65151;BME280;51918;51.856;0.150;2022-07-23T20:25:14;100816.97;;;22.91;42.68
65151;BME280;51918;51.856;0.150;2022-07-23T20:30:14;100820.66;;;22.79;42.70
65151;BME280;51918;51.856;0.150;2022-07-23T20:35:17;100803.28;;;22.61;43.04
65151;BME280;51918;51.856;0.150;2022-07-23T20:40:17;100801.06;;;22.52;43.45
65151;BME280;51918;51.856;0.150;2022-07-23T20:45:18;100795.97;;;22.34;43.96
65151;BME280;51918;51.856;0.150;2022-07-23T20:50:21;100802.63;;;22.13;44.72
65151;BME280;51918;51.856;0.150;2022-07-23T20:55:21;100808.25;;;21.93;44.79
65151;BME280;51918;51.856;0.150;2022-07-23T21:00:22;100802.22;;;21.81;45.47
65151;BME280;51918;51.856;0.150;2022-07-23T21:05:24;100797.31;;;21.73;46.08
65151;BME280;51918;51.856;0.150;2022-07-23T21:10:25;100798.91;;;21.50;46.92
65151;BME280;51918;51.856;0.150;2022-07-23T21:15:26;100798.91;;;21.38;47.18
65151;BME280;51918;51.856;0.150;2022-07-23T21:20:28;100809.47;;;21.20;47.85
65151;BME280;51918;51.856;0.150;2022-07-23T21:25:29;100818.19;;;21.02;49.19
65151;BME280;51918;51.856;0.150;2022-07-23T21:30:30;100814.13;;;21.06;48.08
65151;BME280;51918;51.856;0.150;2022-07-23T21:35:32;100819.66;;;21.09;48.92
65151;BME280;51918;51.856;0.150;2022-07-23T21:40:33;100815.69;;;21.07;48.76
65151;BME280;51918;51.856;0.150;2022-07-23T21:45:34;100809.88;;;21.05;49.06
65151;BME280;51918;51.856;0.150;2022-07-23T21:50:36;100813.91;;;20.89;49.48
65151;BME280;51918;51.856;0.150;2022-07-23T21:55:37;100804.94;;;20.97;49.41
65151;BME280;51918;51.856;0.150;2022-07-23T22:00:38;100801.81;;;20.76;51.12
65151;BME280;51918;51.856;0.150;2022-07-23T22:05:40;100799.63;;;20.73;49.26
65151;BME280;51918;51.856;0.150;2022-07-23T22:10:40;100801.94;;;20.81;49.69
65151;BME280;51918;51.856;0.150;2022-07-23T22:15:41;100800.34;;;20.80;49.84
65151;BME280;51918;51.856;0.150;2022-07-23T22:20:43;100795.88;;;20.69;49.91
65151;BME280;51918;51.856;0.150;2022-07-23T22:25:44;100790.72;;;20.62;50.49
65151;BME280;51918;51.856;0.150;2022-07-23T22:30:45;100794.59;;;20.60;49.98
65151;BME280;51918;51.856;0.150;2022-07-23T22:35:47;100793.09;;;20.52;50.38
65151;BME280;51918;51.856;0.150;2022-07-23T22:40:48;100790.34;;;20.47;50.44
65151;BME280;51918;51.856;0.150;2022-07-23T22:45:49;100778.59;;;20.38;50.64
65151;BME280;51918;51.856;0.150;2022-07-23T22:50:51;100772.00;;;20.35;50.73
65151;BME280;51918;51.856;0.150;2022-07-23T22:55:52;100770.53;;;20.21;51.53
65151;BME280;51918;51.856;0.150;2022-07-23T23:00:52;100762.28;;;20.05;51.44
65151;BME280;51918;51.856;0.150;2022-07-23T23:05:54;100775.47;;;19.92;51.89
65151;BME280;51918;51.856;0.150;2022-07-23T23:10:55;100772.97;;;19.79;51.97
65151;BME280;51918;51.856;0.150;2022-07-23T23:15:56;100758.63;;;19.70;53.10
65151;BME280;51918;51.856;0.150;2022-07-23T23:20:58;100750.53;;;19.78;53.00
65151;BME280;51918;51.856;0.150;2022-07-23T23:25:58;100752.25;;;19.65;53.86
65151;BME280;51918;51.856;0.150;2022-07-23T23:30:59;100759.41;;;19.70;53.51
65151;BME280;51918;51.856;0.150;2022-07-23T23:36:01;100740.81;;;19.66;53.68
65151;BME280;51918;51.856;0.150;2022-07-23T23:41:02;100728.53;;;19.67;53.91
65151;BME280;51918;51.856;0.150;2022-07-23T23:46:03;100736.56;;;19.65;54.02
65151;BME280;51918;51.856;0.150;2022-07-23T23:51:05;100734.28;;;19.76;53.22
65151;BME280;51918;51.856;0.150;2022-07-23T23:56:06;100728.09;;;19.70;54.19
